createdAt,value
2022-12-04T00:01:27.153Z,8.40
2022-12-04T00:04:28.753Z,8.70
2022-12-04T00:07:30.479Z,8.20
2022-12-04T00:10:32.021Z,8.10
2022-12-04T00:13:34.575Z,7.47
2022-12-04T00:16:36.602Z,7.85
2022-12-04T00:19:38.300Z,7.47
2022-12-04T00:22:39.852Z,8.17
2022-12-04T00:25:41.686Z,8.40
2022-12-04T00:28:44.328Z,7.63
2022-12-04T00:31:46.190Z,7.83
2022-12-04T00:34:47.824Z,7.75
2022-12-04T00:37:49.353Z,7.15
2022-12-04T00:40:52.134Z,7.28
2022-12-04T00:43:53.771Z,7.25
2022-12-04T00:46:55.303Z,6.63
2022-12-04T00:49:57.177Z,7.15
2022-12-04T00:52:59.032Z,7.77
2022-12-04T00:56:05.692Z,7.40
2022-12-04T00:59:07.740Z,7.40
2022-12-04T01:02:09.669Z,7.23
2022-12-04T01:05:12.368Z,7.32
2022-12-04T01:08:13.985Z,7.60
2022-12-04T01:11:16.608Z,7.55
2022-12-04T01:14:18.155Z,7.28
2022-12-04T01:17:19.663Z,7.60
2022-12-04T01:20:21.208Z,7.43
2022-12-04T01:23:22.777Z,7.37
2022-12-04T01:26:24.384Z,7.90
2022-12-04T01:29:25.946Z,7.60
2022-12-04T01:32:28.672Z,7.60
2022-12-04T01:35:30.305Z,8.32
2022-12-04T01:38:32.064Z,7.78
2022-12-04T01:41:33.696Z,7.75
2022-12-04T01:44:35.354Z,8.10
2022-12-04T01:47:36.906Z,7.68
2022-12-04T01:50:38.564Z,7.40
2022-12-04T01:53:43.190Z,8.10
2022-12-04T01:56:50.761Z,7.85
2022-12-04T02:00:00.295Z,8.57
2022-12-04T02:03:02.065Z,8.03
2022-12-04T02:06:04.226Z,8.00
2022-12-04T02:09:05.890Z,8.30
2022-12-04T02:12:19.746Z,7.53
2022-12-04T02:15:46.319Z,7.63
2022-12-04T02:19:09.656Z,7.55
2022-12-04T02:22:37.807Z,8.05
2022-12-04T02:26:02.938Z,7.63
2022-12-04T02:29:12.860Z,8.45
2022-12-04T02:32:20.110Z,7.72
2022-12-04T02:35:31.101Z,8.03
2022-12-04T02:38:37.431Z,8.43
2022-12-04T02:41:48.756Z,9.13
2022-12-04T02:44:59.983Z,9.23
2022-12-04T02:48:05.393Z,7.97
2022-12-04T02:51:10.318Z,9.25
2022-12-04T02:54:24.064Z,9.10
2022-12-04T02:57:33.226Z,9.27
2022-12-04T03:00:37.136Z,8.48
2022-12-04T03:03:38.988Z,8.68
2022-12-04T03:06:44.247Z,9.07
2022-12-04T03:09:50.892Z,9.07
2022-12-04T03:12:58.384Z,9.45
2022-12-04T03:16:33.185Z,8.90
2022-12-04T03:19:45.657Z,9.07
2022-12-04T03:22:51.947Z,8.43
2022-12-04T03:26:05.817Z,8.40
2022-12-04T03:29:25.262Z,8.17
2022-12-04T03:32:45.158Z,7.90
2022-12-04T03:35:52.408Z,7.25
2022-12-04T03:39:01.597Z,7.80
2022-12-04T03:42:06.520Z,7.40
2022-12-04T03:45:20.766Z,7.18
2022-12-04T03:48:40.965Z,7.10
2022-12-04T03:51:55.603Z,6.45
2022-12-04T03:55:04.542Z,7.05
2022-12-04T03:58:11.293Z,7.20
2022-12-04T04:01:15.205Z,7.03
2022-12-04T04:04:25.800Z,6.55
2022-12-04T04:08:18.592Z,7.10
2022-12-04T04:11:27.137Z,7.33
2022-12-04T04:15:09.687Z,7.05
2022-12-04T04:18:30.017Z,7.35
2022-12-04T04:21:56.185Z,7.25
2022-12-04T04:25:13.926Z,6.88
2022-12-04T04:28:36.963Z,7.78
2022-12-04T04:31:45.690Z,7.38
2022-12-04T04:34:52.974Z,7.37
2022-12-04T04:38:12.893Z,7.78
2022-12-04T04:41:39.824Z,7.28
2022-12-04T04:44:51.490Z,7.43
2022-12-04T04:47:56.038Z,7.32
2022-12-04T04:50:59.931Z,7.22
2022-12-04T04:54:06.830Z,6.93
2022-12-04T04:57:08.363Z,7.35
2022-12-04T05:00:19.535Z,7.07
2022-12-04T05:03:21.173Z,7.32
2022-12-04T05:06:22.793Z,7.10
2022-12-04T05:09:24.404Z,6.45
2022-12-04T05:12:25.930Z,6.50
2022-12-04T05:15:27.538Z,6.30
2022-12-04T05:18:30.028Z,6.60
2022-12-04T05:21:32.991Z,6.88
2022-12-04T05:24:34.519Z,7.28
2022-12-04T05:27:36.025Z,6.90
2022-12-04T05:30:37.869Z,6.80
2022-12-04T05:33:39.422Z,7.18
2022-12-04T05:36:40.967Z,6.63
2022-12-04T05:39:42.680Z,6.07
2022-12-04T05:42:44.215Z,6.55
2022-12-04T05:45:46.009Z,6.57
2022-12-04T05:48:49.820Z,6.50
2022-12-04T05:51:51.951Z,6.80
2022-12-04T05:54:53.551Z,6.90
2022-12-04T05:57:55.065Z,6.95
2022-12-04T06:00:56.785Z,7.13
2022-12-04T06:04:01.062Z,7.05
2022-12-04T06:07:02.605Z,7.17
2022-12-04T06:10:05.267Z,8.02
2022-12-04T06:13:07.343Z,7.55
2022-12-04T06:16:17.978Z,7.73
2022-12-04T06:19:21.704Z,7.68
2022-12-04T06:22:23.289Z,7.20
2022-12-04T06:25:24.810Z,7.35
2022-12-04T06:28:26.583Z,7.28
2022-12-04T06:31:29.696Z,7.63
2022-12-04T06:34:32.416Z,7.85
2022-12-04T06:37:34.282Z,9.20
2022-12-04T06:40:39.991Z,8.27
2022-12-04T06:43:42.148Z,7.63
2022-12-04T06:46:47.098Z,8.33
2022-12-04T06:49:50.364Z,9.43
2022-12-04T06:52:51.857Z,7.90
2022-12-04T06:55:53.679Z,7.95
2022-12-04T06:58:57.403Z,8.30
2022-12-04T07:01:58.995Z,7.63
2022-12-04T07:05:00.603Z,8.13
2022-12-04T07:08:02.701Z,7.80
2022-12-04T07:11:04.340Z,8.57
2022-12-04T07:14:05.947Z,8.57
2022-12-04T07:17:07.517Z,8.47
2022-12-04T07:20:09.616Z,8.05
2022-12-04T07:23:11.131Z,8.57
2022-12-04T07:26:13.974Z,8.45
2022-12-04T07:29:15.557Z,8.45
2022-12-04T07:32:17.168Z,9.25
2022-12-04T07:35:18.723Z,8.82
2022-12-04T07:38:20.265Z,8.67
2022-12-04T07:41:21.836Z,8.48
2022-12-04T07:44:23.425Z,7.85
2022-12-04T07:47:24.950Z,8.60
2022-12-04T07:50:26.542Z,8.68
2022-12-04T07:53:28.079Z,9.18
2022-12-04T07:56:29.704Z,8.60
2022-12-04T07:59:31.271Z,7.90
2022-12-04T08:02:32.784Z,8.77
2022-12-04T08:05:34.476Z,9.13
2022-12-04T08:08:36.751Z,9.47
2022-12-04T08:11:38.984Z,8.70
2022-12-04T08:14:40.500Z,8.73
2022-12-04T08:17:42.033Z,9.10
2022-12-04T08:20:44.027Z,9.15
2022-12-04T08:23:45.592Z,9.13
2022-12-04T08:26:47.162Z,9.75
2022-12-04T08:29:48.797Z,8.20
2022-12-04T08:32:50.592Z,8.38
2022-12-04T08:35:52.198Z,9.23
2022-12-04T08:38:54.365Z,9.60
2022-12-04T08:41:57.288Z,9.55
2022-12-04T08:44:58.955Z,9.50
2022-12-04T08:48:00.491Z,9.00
2022-12-04T08:51:04.325Z,8.77
2022-12-04T08:54:08.650Z,10.07
2022-12-04T08:57:10.166Z,9.90
2022-12-04T09:00:12.936Z,9.48
2022-12-04T09:03:16.988Z,10.18
2022-12-04T09:06:18.837Z,9.45
2022-12-04T09:09:20.391Z,9.60
2022-12-04T09:12:21.918Z,9.60
2022-12-04T09:15:23.476Z,10.13
2022-12-04T09:18:25.104Z,9.77
2022-12-04T09:21:26.682Z,9.68
2022-12-04T09:24:31.803Z,10.20
2022-12-04T09:27:37.682Z,10.63
2022-12-04T09:30:39.268Z,8.82
2022-12-04T09:33:41.116Z,8.63
2022-12-04T09:36:42.683Z,8.77
2022-12-04T09:39:46.156Z,9.07
2022-12-04T09:43:21.356Z,9.43
2022-12-04T09:46:31.001Z,9.98
2022-12-04T09:49:46.160Z,9.33
2022-12-04T09:52:56.560Z,22.10
2022-12-04T09:55:58.077Z,11.05
2022-12-04T09:59:08.628Z,9.68
2022-12-04T10:02:51.774Z,9.18
2022-12-04T10:05:59.421Z,10.10
2022-12-04T10:09:30.417Z,9.55
2022-12-04T10:12:53.259Z,9.67
2022-12-04T10:16:17.116Z,9.15
2022-12-04T10:19:29.044Z,9.50
2022-12-04T10:22:47.783Z,9.17
2022-12-04T10:25:51.944Z,9.18
2022-12-04T10:29:18.330Z,9.20
2022-12-04T10:32:34.751Z,9.02
2022-12-04T10:35:37.897Z,8.90
2022-12-04T10:38:44.954Z,9.60
2022-12-04T10:41:59.988Z,9.40
2022-12-04T10:45:01.881Z,9.57
2022-12-04T10:48:04.900Z,9.00
2022-12-04T10:51:10.086Z,8.65
2022-12-04T10:54:34.560Z,9.27
2022-12-04T10:57:37.526Z,8.77
2022-12-04T11:00:39.076Z,9.45
2022-12-04T11:03:57.681Z,9.77
2022-12-04T11:07:05.464Z,8.98
2022-12-04T11:10:22.121Z,9.45
2022-12-04T11:13:24.413Z,9.70
2022-12-04T11:16:39.833Z,9.27
2022-12-04T11:19:41.419Z,9.55
2022-12-04T11:23:14.781Z,8.48
2022-12-04T11:26:28.995Z,9.17
2022-12-04T11:29:38.364Z,9.27
2022-12-04T11:32:42.004Z,9.52
2022-12-04T11:35:51.695Z,10.43
2022-12-04T11:39:03.916Z,9.38
2022-12-04T11:42:23.321Z,10.15
2022-12-04T11:45:24.872Z,10.10
2022-12-04T11:48:29.272Z,10.37
2022-12-04T11:51:55.584Z,9.73
2022-12-04T11:55:03.457Z,9.18
2022-12-04T11:58:29.567Z,9.73
2022-12-04T12:01:34.058Z,9.30
2022-12-04T12:05:13.398Z,9.63
2022-12-04T12:09:08.487Z,9.20
2022-12-04T12:12:34.931Z,10.02
2022-12-04T12:15:51.921Z,9.63
2022-12-04T12:19:11.692Z,9.27
2022-12-04T12:22:38.711Z,9.40
2022-12-04T12:25:59.036Z,9.68
2022-12-04T12:29:12.748Z,8.88
2022-12-04T12:32:23.752Z,9.07
2022-12-04T12:35:36.259Z,9.48
2022-12-04T12:38:50.317Z,9.07
2022-12-04T12:41:59.033Z,10.00
2022-12-04T12:45:21.269Z,9.90
2022-12-04T12:48:26.560Z,10.63
2022-12-04T12:51:54.675Z,12.25
2022-12-04T12:55:04.031Z,10.67
2022-12-04T12:58:22.177Z,10.60
2022-12-04T13:01:41.680Z,9.60
2022-12-04T13:04:47.717Z,9.50
2022-12-04T13:08:18.324Z,9.18
2022-12-04T13:11:22.557Z,9.82
2022-12-04T13:14:24.198Z,9.27
2022-12-04T13:17:25.643Z,9.00
2022-12-04T13:20:32.191Z,8.63
2022-12-04T13:24:06.066Z,10.02
2022-12-04T13:27:13.195Z,9.67
2022-12-04T13:30:20.631Z,10.65
2022-12-04T13:33:49.744Z,11.00
2022-12-04T13:37:12.413Z,10.20
2022-12-04T13:40:34.808Z,8.60
2022-12-04T13:43:42.116Z,9.75
2022-12-04T13:47:00.979Z,10.52
2022-12-04T13:50:17.929Z,9.77
2022-12-04T13:53:34.167Z,9.50
2022-12-04T13:56:35.809Z,9.65
2022-12-04T13:59:39.880Z,9.43
2022-12-04T14:02:49.616Z,8.90
2022-12-04T14:05:52.007Z,9.70
2022-12-04T14:09:00.705Z,9.73
2022-12-04T14:12:05.374Z,9.98
2022-12-04T14:15:20.061Z,9.60
2022-12-04T14:18:29.776Z,12.45
2022-12-04T14:21:46.841Z,12.13
2022-12-04T14:24:50.033Z,23.85
2022-12-04T14:27:53.614Z,20.85
2022-12-04T14:31:08.912Z,17.07
2022-12-04T14:34:27.252Z,10.75
2022-12-04T14:37:34.988Z,11.55
2022-12-04T14:40:43.528Z,14.60
2022-12-04T14:43:45.491Z,13.00
2022-12-04T14:46:52.177Z,10.73
2022-12-04T14:50:21.981Z,10.77
2022-12-04T14:53:53.099Z,15.85
2022-12-04T14:57:21.818Z,10.18
2022-12-04T15:00:24.964Z,9.73
2022-12-04T15:03:29.965Z,10.53
2022-12-04T15:06:33.266Z,12.00
2022-12-04T15:09:54.118Z,11.35
2022-12-04T15:12:55.649Z,11.53
2022-12-04T15:15:57.643Z,10.45
2022-12-04T15:19:00.617Z,9.48
2022-12-04T15:22:10.076Z,11.25
2022-12-04T15:25:25.311Z,9.35
2022-12-04T15:28:57.819Z,10.77
2022-12-04T15:32:03.623Z,10.32
2022-12-04T15:35:13.893Z,10.63
2022-12-04T15:38:16.381Z,11.02
2022-12-04T15:41:36.114Z,12.73
2022-12-04T15:44:37.677Z,9.00
2022-12-04T15:47:41.895Z,9.88
2022-12-04T15:50:43.491Z,10.57
2022-12-04T15:53:46.723Z,10.07
2022-12-04T15:57:03.443Z,11.80
2022-12-04T16:00:26.596Z,11.32
2022-12-04T16:03:37.352Z,13.88
2022-12-04T16:06:47.342Z,12.37
2022-12-04T16:10:03.164Z,8.38
2022-12-04T16:13:05.688Z,9.20
2022-12-04T16:16:13.248Z,8.20
2022-12-04T16:19:21.588Z,8.88
2022-12-04T16:22:24.735Z,10.15
2022-12-04T16:25:26.308Z,10.55
2022-12-04T16:28:27.816Z,13.75
2022-12-04T16:31:29.474Z,10.73
2022-12-04T16:34:31.380Z,11.77
2022-12-04T16:37:33.000Z,9.00
2022-12-04T16:40:34.593Z,9.75
2022-12-04T16:43:36.125Z,10.73
2022-12-04T16:46:37.794Z,11.60
2022-12-04T16:49:40.426Z,11.18
2022-12-04T16:52:42.491Z,9.70
2022-12-04T16:55:46.627Z,10.60
2022-12-04T16:58:48.612Z,10.70
2022-12-04T17:01:51.470Z,10.85
2022-12-04T17:04:57.530Z,9.73
2022-12-04T17:08:01.460Z,9.30
2022-12-04T17:11:03.279Z,9.43
2022-12-04T17:14:07.221Z,10.23
2022-12-04T17:17:11.717Z,9.73
2022-12-04T17:20:17.738Z,9.73
2022-12-04T17:23:19.311Z,10.43
2022-12-04T17:26:21.198Z,10.18
2022-12-04T17:29:22.731Z,9.77
2022-12-04T17:32:24.277Z,10.73
2022-12-04T17:35:25.833Z,10.00
2022-12-04T17:38:27.850Z,9.33
2022-12-04T17:41:29.488Z,9.07
2022-12-04T17:44:31.069Z,8.95
2022-12-04T17:47:34.770Z,9.57
2022-12-04T17:50:36.304Z,9.82
2022-12-04T17:53:38.679Z,9.95
2022-12-04T17:56:44.587Z,10.30
2022-12-04T17:59:49.782Z,10.00
2022-12-04T18:02:53.388Z,11.60
2022-12-04T18:05:55.199Z,12.60
2022-12-04T18:08:57.042Z,11.63
2022-12-04T18:12:01.471Z,10.55
2022-12-04T18:15:03.852Z,11.05
2022-12-04T18:18:05.458Z,10.63
2022-12-04T18:21:12.107Z,12.70
2022-12-04T18:24:14.583Z,13.20
2022-12-04T18:27:16.099Z,15.32
2022-12-04T18:30:17.672Z,16.75
2022-12-04T18:33:19.283Z,13.60
2022-12-04T18:36:24.032Z,11.32
2022-12-04T18:39:26.438Z,12.10
2022-12-04T18:42:30.719Z,12.05
2022-12-04T18:45:32.335Z,10.15
2022-12-04T18:48:34.401Z,9.37
2022-12-04T18:51:42.291Z,9.30
2022-12-04T18:54:45.332Z,9.18
2022-12-04T18:57:46.840Z,8.52
2022-12-04T19:00:49.085Z,9.20
2022-12-04T19:03:56.958Z,10.32
2022-12-04T19:06:58.486Z,9.88
2022-12-04T19:10:21.395Z,9.03
2022-12-04T19:13:21.706Z,9.27
2022-12-04T19:16:23.642Z,9.77
2022-12-04T19:19:30.152Z,9.03
2022-12-04T19:22:33.119Z,9.63
2022-12-04T19:25:35.336Z,9.73
2022-12-04T19:28:37.000Z,9.88
2022-12-04T19:31:38.648Z,9.50
2022-12-04T19:34:40.745Z,9.25
2022-12-04T19:37:43.944Z,8.15
2022-12-04T19:44:48.042Z,8.55
2022-12-04T19:47:48.048Z,8.60
2022-12-04T19:50:49.651Z,9.67
2022-12-04T19:53:51.327Z,8.82
2022-12-04T19:56:53.050Z,8.60
2022-12-04T19:59:54.633Z,8.77
2022-12-04T20:02:56.192Z,7.82
2022-12-04T20:06:15.894Z,8.40
2022-12-04T20:09:22.035Z,8.10
2022-12-04T20:12:24.472Z,7.37
2022-12-04T20:15:26.018Z,7.25
2022-12-04T20:18:27.607Z,7.65
2022-12-04T20:21:30.841Z,8.00
2022-12-04T20:24:32.427Z,8.88
2022-12-04T20:27:34.136Z,8.15
2022-12-04T20:30:35.753Z,8.60
2022-12-04T20:33:37.363Z,7.40
2022-12-04T20:36:41.795Z,7.22
2022-12-04T20:39:43.422Z,8.18
2022-12-04T20:42:45.009Z,8.30
2022-12-04T20:45:46.639Z,7.70
2022-12-04T20:48:49.686Z,7.55
2022-12-04T20:51:52.169Z,7.13
2022-12-04T20:54:53.721Z,6.63
2022-12-04T20:57:57.274Z,7.22
2022-12-04T21:01:05.884Z,6.53
2022-12-04T21:04:07.578Z,6.55
2022-12-04T21:07:09.109Z,6.63
2022-12-04T21:10:11.033Z,7.07
2022-12-04T21:13:31.360Z,6.60
2022-12-04T21:16:32.959Z,6.78
2022-12-04T21:19:34.592Z,6.68
2022-12-04T21:22:37.567Z,6.67
2022-12-04T21:25:39.250Z,6.88
2022-12-04T21:28:40.766Z,7.03
2022-12-04T21:31:42.872Z,7.22
2022-12-04T21:34:44.894Z,6.63
2022-12-04T21:37:46.425Z,7.40
2022-12-04T21:40:49.333Z,7.95
2022-12-04T21:43:50.946Z,8.23
2022-12-04T21:46:52.550Z,7.80
2022-12-04T21:49:54.755Z,7.47
2022-12-04T21:52:57.161Z,7.73
2022-12-04T21:55:58.770Z,7.10
2022-12-04T21:59:00.611Z,6.45
2022-12-04T22:02:02.521Z,6.63
2022-12-04T22:05:04.450Z,6.43
2022-12-04T22:08:07.278Z,6.30
2022-12-04T22:11:10.250Z,6.68
2022-12-04T22:14:12.241Z,6.13
2022-12-04T22:17:13.859Z,6.60
2022-12-04T22:20:15.525Z,6.20
2022-12-04T22:23:17.045Z,6.30
2022-12-04T22:26:21.875Z,6.32
2022-12-04T22:32:45.016Z,5.93
2022-12-04T22:35:46.568Z,5.97
2022-12-04T22:39:08.058Z,5.88
2022-12-04T22:42:09.949Z,6.65
2022-12-04T22:45:12.163Z,6.07
2022-12-04T22:48:13.696Z,6.82
2022-12-04T22:51:20.577Z,5.90
2022-12-04T22:54:22.122Z,6.23
2022-12-04T22:57:24.283Z,6.35
2022-12-04T23:00:25.814Z,6.03
2022-12-04T23:03:27.519Z,5.80
2022-12-04T23:06:31.202Z,6.85
2022-12-04T23:09:32.734Z,5.80
2022-12-04T23:12:34.495Z,5.40
2022-12-04T23:15:37.860Z,5.77
2022-12-04T23:18:39.372Z,5.95
2022-12-04T23:21:41.603Z,5.55
2022-12-04T23:24:43.145Z,6.00
2022-12-04T23:27:44.671Z,6.30
2022-12-04T23:30:47.269Z,5.78
2022-12-04T23:33:49.076Z,6.35
2022-12-04T23:36:50.692Z,5.32
2022-12-04T23:39:52.216Z,6.53
2022-12-04T23:42:53.754Z,6.35
2022-12-04T23:45:55.297Z,7.07
2022-12-04T23:48:56.863Z,6.15
2022-12-04T23:51:58.413Z,6.25
2022-12-04T23:54:59.960Z,5.87
2022-12-04T23:58:02.277Z,6.13
